Time;durP1;ratioP1;P1;durP2;ratioP2;P2;SDS_P1;SDS_P2;PMS_P1;PMS_P2;Temp;Humidity;BMP_temperature;BMP_pressure;BME280_temperature;BME280_humidity;BME280_pressure;Samples;Min_cycle;Max_cycle;Signal;HPM_P1;HPM_P2
2022/10/17 00:01:25;;;;;;;11.00;7.40;;;;;;;;;;5157093;27;20710;-82
2022/10/17 00:03:52;;;;;;;9.88;7.53;;;;;;;;;;5156664;27;20201;-82
2022/10/17 00:06:19;;;;;;;12.67;7.70;;;;;;;;;;5164609;27;20284;-82
2022/10/17 00:08:48;;;;;;;13.75;7.97;;;;;;;;;;5171504;27;20251;-82
2022/10/17 00:11:17;;;;;;;14.77;8.10;;;;;;;;;;5155398;27;20208;-82
2022/10/17 00:13:47;;;;;;;13.38;7.50;;;;;;;;;;5156070;27;20199;-82
2022/10/17 00:16:24;;;;;;;13.00;8.40;;;;;;;;;;5156267;27;20204;-82
2022/10/17 00:18:53;;;;;;;11.15;8.00;;;;;;;;;;5156306;27;20204;-82
2022/10/17 00:21:25;;;;;;;12.40;7.70;;;;;;;;;;5156332;27;20287;-82
2022/10/17 00:23:54;;;;;;;11.40;7.77;;;;;;;;;;5156387;27;20200;-82
2022/10/17 00:26:21;;;;;;;11.07;8.13;;;;;;;;;;5157496;27;20218;-82
2022/10/17 00:28:51;;;;;;;12.30;8.10;;;;;;;;;;5156776;27;20247;-82
2022/10/17 00:31:20;;;;;;;13.00;8.67;;;;;;;;;;5159049;27;20200;-82
2022/10/17 00:33:48;;;;;;;11.87;8.33;;;;;;;;;;5156380;27;20279;-82
2022/10/17 00:36:19;;;;;;;16.30;8.53;;;;;;;;;;5156355;27;20275;-82
2022/10/17 00:38:48;;;;;;;12.77;8.40;;;;;;;;;;5149711;27;20192;-82
2022/10/17 00:41:22;;;;;;;11.50;8.43;;;;;;;;;;5155192;27;20204;-82
2022/10/17 00:43:50;;;;;;;12.97;8.83;;;;;;;;;;5168721;27;20207;-82
2022/10/17 00:46:19;;;;;;;12.30;8.35;;;;;;;;;;5155957;27;20217;-82
2022/10/17 00:48:48;;;;;;;12.55;8.43;;;;;;;;;;5155388;27;20201;-81
2022/10/17 00:51:21;;;;;;;11.43;8.32;;;;;;;;;;5168281;27;20244;-81
2022/10/17 00:53:50;;;;;;;13.25;8.23;;;;;;;;;;5176971;27;20200;-81
2022/10/17 00:56:20;;;;;;;13.40;8.60;;;;;;;;;;5176073;27;20199;-81
2022/10/17 00:58:49;;;;;;;14.25;8.80;;;;;;;;;;5134891;27;20284;-81
2022/10/17 01:01:17;;;;;;;15.55;9.23;;;;;;;;;;5135775;27;20205;-81
2022/10/17 01:03:46;;;;;;;12.68;9.05;;;;;;;;;;5155470;27;20715;-81
2022/10/17 01:06:16;;;;;;;13.60;9.05;;;;;;;;;;5156297;27;20220;-81
2022/10/17 01:08:46;;;;;;;14.27;8.05;;;;;;;;;;5155367;27;20235;-81
2022/10/17 01:11:23;;;;;;;11.82;8.57;;;;;;;;;;5156581;27;20687;-80
2022/10/17 01:13:52;;;;;;;11.10;7.93;;;;;;;;;;5157200;27;20228;-83
2022/10/17 01:16:21;;;;;;;11.88;8.32;;;;;;;;;;5147976;27;20267;-82
2022/10/17 01:18:56;;;;;;;12.38;8.27;;;;;;;;;;5155061;27;20275;-82
2022/10/17 01:21:31;;;;;;;10.65;8.38;;;;;;;;;;5149062;27;20204;-82
2022/10/17 01:24:09;;;;;;;14.95;8.40;;;;;;;;;;5154755;27;20195;-82
2022/10/17 01:26:43;;;;;;;15.30;8.60;;;;;;;;;;5154983;27;20220;-82
2022/10/17 01:29:23;;;;;;;13.38;8.45;;;;;;;;;;5154871;27;20300;-82
2022/10/17 01:31:55;;;;;;;13.68;8.95;;;;;;;;;;5154871;27;20280;-82
2022/10/17 01:34:27;;;;;;;11.35;8.77;;;;;;;;;;5154589;27;20220;-82
2022/10/17 01:36:58;;;;;;;14.13;9.30;;;;;;;;;;5154563;27;20197;-82
2022/10/17 01:39:30;;;;;;;12.55;8.85;;;;;;;;;;5155176;27;20250;-82
2022/10/17 01:41:59;;;;;;;12.73;8.88;;;;;;;;;;5154807;27;20307;-82
2022/10/17 01:44:29;;;;;;;12.50;8.63;;;;;;;;;;5155800;27;21732;-82
2022/10/17 01:47:01;;;;;;;11.73;8.90;;;;;;;;;;5160238;27;20288;-82
2022/10/17 01:49:30;;;;;;;16.53;9.07;;;;;;;;;;5154756;27;20232;-82
2022/10/17 01:51:58;;;;;;;14.48;9.23;;;;;;;;;;5154767;27;20271;-82
2022/10/17 01:54:27;;;;;;;15.23;8.57;;;;;;;;;;5154998;27;20236;-82
2022/10/17 01:56:56;;;;;;;13.77;9.02;;;;;;;;;;5155151;27;20193;-82
2022/10/17 01:59:26;;;;;;;15.60;9.20;;;;;;;;;;5154718;27;20284;-82
2022/10/17 02:01:54;;;;;;;15.60;9.23;;;;;;;;;;5169625;27;20272;-82
2022/10/17 02:04:23;;;;;;;13.10;9.07;;;;;;;;;;5154240;27;20239;-82
2022/10/17 02:06:50;;;;;;;13.88;9.70;;;;;;;;;;5155186;27;20282;-82
2022/10/17 02:09:18;;;;;;;13.53;9.00;;;;;;;;;;5153541;27;20256;-82
2022/10/17 02:11:51;;;;;;;17.42;9.52;;;;;;;;;;5153415;27;20193;-82
2022/10/17 02:14:23;;;;;;;13.25;9.00;;;;;;;;;;5154296;27;20205;-82
2022/10/17 02:16:55;;;;;;;12.50;9.20;;;;;;;;;;5153504;27;20207;-82
2022/10/17 02:19:43;;;;;;;13.85;9.13;;;;;;;;;;5154154;27;20207;-82
2022/10/17 02:22:17;;;;;;;14.73;9.98;;;;;;;;;;5146383;27;20259;-82
2022/10/17 02:24:48;;;;;;;15.20;9.20;;;;;;;;;;5153524;27;20303;-82
2022/10/17 02:27:16;;;;;;;14.93;9.73;;;;;;;;;;5153622;27;20910;-82
2022/10/17 02:29:47;;;;;;;20.17;10.15;;;;;;;;;;5153305;27;20668;-82
2022/10/17 02:32:16;;;;;;;14.60;9.77;;;;;;;;;;5154166;27;20196;-82
2022/10/17 02:34:46;;;;;;;14.65;9.98;;;;;;;;;;5153616;27;20200;-82
2022/10/17 02:37:16;;;;;;;16.67;9.85;;;;;;;;;;5154234;27;20627;-82
2022/10/17 02:39:44;;;;;;;16.50;10.48;;;;;;;;;;5160683;27;20278;-82
2022/10/17 02:42:13;;;;;;;16.35;10.15;;;;;;;;;;5162943;27;20227;-82
2022/10/17 02:44:43;;;;;;;16.38;10.48;;;;;;;;;;5153833;27;20275;-82
2022/10/17 02:47:14;;;;;;;14.85;9.95;;;;;;;;;;5153222;27;20286;-82
2022/10/17 02:49:44;;;;;;;15.20;10.43;;;;;;;;;;5154303;27;20200;-82
2022/10/17 02:52:13;;;;;;;16.77;9.67;;;;;;;;;;5154020;27;20283;-82
2022/10/17 02:54:44;;;;;;;16.60;10.47;;;;;;;;;;5154433;27;20283;-82
2022/10/17 02:57:12;;;;;;;15.83;9.53;;;;;;;;;;5153207;27;20231;-82
2022/10/17 02:59:41;;;;;;;15.23;10.13;;;;;;;;;;5153736;27;20280;-82
2022/10/17 03:02:08;;;;;;;15.93;9.83;;;;;;;;;;5153710;27;20204;-83
2022/10/17 03:04:35;;;;;;;18.08;10.82;;;;;;;;;;5152259;27;20220;-82
2022/10/17 03:07:02;;;;;;;13.65;9.63;;;;;;;;;;5153329;27;20224;-82
2022/10/17 03:09:30;;;;;;;17.17;10.17;;;;;;;;;;5152820;27;20266;-82
2022/10/17 03:11:58;;;;;;;15.73;9.83;;;;;;;;;;5153198;27;20231;-82
2022/10/17 03:14:26;;;;;;;17.92;10.60;;;;;;;;;;5153398;27;20224;-82
2022/10/17 03:16:53;;;;;;;14.13;9.47;;;;;;;;;;5158667;27;20270;-82
2022/10/17 03:19:20;;;;;;;16.90;10.55;;;;;;;;;;5159644;27;20694;-82
2022/10/17 03:21:47;;;;;;;15.37;10.37;;;;;;;;;;5160407;27;20619;-82
2022/10/17 03:24:15;;;;;;;12.13;9.37;;;;;;;;;;5160690;27;20241;-82
2022/10/17 03:26:42;;;;;;;14.90;10.30;;;;;;;;;;5159107;27;20916;-82
2022/10/17 03:29:10;;;;;;;16.48;10.52;;;;;;;;;;5160895;27;20248;-82
2022/10/17 03:31:37;;;;;;;18.02;11.10;;;;;;;;;;5161661;27;20235;-82
2022/10/17 03:34:05;;;;;;;16.75;11.05;;;;;;;;;;5160804;27;20279;-82
2022/10/17 03:36:32;;;;;;;15.55;10.52;;;;;;;;;;5160622;27;20601;-82
2022/10/17 03:38:59;;;;;;;16.77;10.95;;;;;;;;;;5160001;27;20224;-83
2022/10/17 03:41:26;;;;;;;14.03;10.53;;;;;;;;;;5159366;27;20743;-82
2022/10/17 03:43:54;;;;;;;19.30;10.35;;;;;;;;;;5158959;27;20226;-82
2022/10/17 03:46:22;;;;;;;16.55;9.93;;;;;;;;;;5159666;27;20258;-82
2022/10/17 03:48:49;;;;;;;17.95;10.35;;;;;;;;;;5159560;27;20246;-81
2022/10/17 03:51:16;;;;;;;14.80;10.65;;;;;;;;;;5159966;27;20273;-82
2022/10/17 03:53:44;;;;;;;17.10;9.93;;;;;;;;;;5159464;27;20245;-82
2022/10/17 03:56:12;;;;;;;18.15;10.85;;;;;;;;;;5158950;27;20230;-82
2022/10/17 03:58:40;;;;;;;17.67;10.75;;;;;;;;;;5159897;27;20277;-82
2022/10/17 04:01:08;;;;;;;17.50;10.52;;;;;;;;;;5159371;27;20272;-82
2022/10/17 04:03:36;;;;;;;18.02;11.02;;;;;;;;;;5160113;27;20283;-82
2022/10/17 04:06:04;;;;;;;17.15;10.80;;;;;;;;;;5159018;27;20702;-82
2022/10/17 04:08:32;;;;;;;15.10;10.82;;;;;;;;;;5164204;27;20303;-82
2022/10/17 04:10:59;;;;;;;16.98;10.82;;;;;;;;;;5159287;27;20291;-82
2022/10/17 04:13:27;;;;;;;15.30;10.80;;;;;;;;;;5158820;27;20287;-82
2022/10/17 04:15:55;;;;;;;16.63;10.27;;;;;;;;;;5159208;27;20718;-82
2022/10/17 04:18:22;;;;;;;17.52;10.13;;;;;;;;;;5159528;27;20283;-81
2022/10/17 04:20:50;;;;;;;20.73;10.37;;;;;;;;;;5159947;27;20228;-82
2022/10/17 04:23:18;;;;;;;14.33;10.37;;;;;;;;;;5159355;27;20283;-82
2022/10/17 04:25:45;;;;;;;15.02;10.27;;;;;;;;;;5151411;27;20306;-82
2022/10/17 04:28:13;;;;;;;17.40;11.57;;;;;;;;;;5156929;27;20234;-82
2022/10/17 04:30:40;;;;;;;18.42;11.18;;;;;;;;;;5155904;27;20275;-82
2022/10/17 04:33:07;;;;;;;14.98;10.98;;;;;;;;;;5156367;27;20608;-82
2022/10/17 04:35:34;;;;;;;15.82;10.55;;;;;;;;;;5160859;27;20196;-81
2022/10/17 04:38:03;;;;;;;16.73;11.02;;;;;;;;;;5163526;27;20299;-82
2022/10/17 04:40:30;;;;;;;20.15;10.43;;;;;;;;;;5155442;27;20754;-81
2022/10/17 04:42:57;;;;;;;15.65;11.02;;;;;;;;;;5155212;27;20232;-82
2022/10/17 04:45:25;;;;;;;17.17;10.23;;;;;;;;;;5155899;27;20303;-82
2022/10/17 04:47:52;;;;;;;15.77;10.35;;;;;;;;;;5155083;27;20350;-82
2022/10/17 04:50:19;;;;;;;16.90;10.50;;;;;;;;;;5155560;27;20283;-82
2022/10/17 04:52:46;;;;;;;20.05;10.63;;;;;;;;;;5152586;27;20280;-82
2022/10/17 04:55:15;;;;;;;15.55;10.57;;;;;;;;;;5152162;27;20227;-82
2022/10/17 04:57:42;;;;;;;16.42;10.20;;;;;;;;;;5156108;27;20235;-82
2022/10/17 05:00:10;;;;;;;14.60;10.13;;;;;;;;;;5155250;27;20224;-82
2022/10/17 05:02:37;;;;;;;16.05;10.30;;;;;;;;;;5155790;27;20228;-82
2022/10/17 05:05:04;;;;;;;14.73;10.05;;;;;;;;;;5166222;27;20195;-85
2022/10/17 05:07:31;;;;;;;15.68;10.95;;;;;;;;;;5155725;27;20307;-85
2022/10/17 05:09:59;;;;;;;12.77;10.45;;;;;;;;;;5154754;27;20778;-84
2022/10/17 05:12:27;;;;;;;14.95;10.68;;;;;;;;;;5155491;27;20722;-84
2022/10/17 05:14:54;;;;;;;13.68;10.43;;;;;;;;;;5155600;27;20279;-84
2022/10/17 05:17:22;;;;;;;15.73;10.45;;;;;;;;;;5154447;27;20223;-85
2022/10/17 05:19:49;;;;;;;14.30;10.48;;;;;;;;;;5155647;27;20203;-85
2022/10/17 05:22:16;;;;;;;14.48;10.82;;;;;;;;;;5154847;27;20220;-83
2022/10/17 05:24:43;;;;;;;15.30;10.60;;;;;;;;;;5154571;27;20275;-84
2022/10/17 05:27:10;;;;;;;15.45;10.88;;;;;;;;;;5153384;27;20715;-83
2022/10/17 05:29:39;;;;;;;14.75;10.85;;;;;;;;;;5154722;27;20221;-84
2022/10/17 05:32:06;;;;;;;18.27;10.93;;;;;;;;;;5155695;27;20678;-83
2022/10/17 05:34:34;;;;;;;17.42;10.43;;;;;;;;;;5155092;27;20283;-83
2022/10/17 05:37:01;;;;;;;17.77;10.70;;;;;;;;;;5150810;27;20204;-82
2022/10/17 05:39:28;;;;;;;17.27;10.48;;;;;;;;;;5153384;27;20275;-83
2022/10/17 05:41:55;;;;;;;16.00;10.60;;;;;;;;;;5154590;27;20290;-83
2022/10/17 05:44:23;;;;;;;14.40;10.40;;;;;;;;;;5141476;27;20684;-83
2022/10/17 05:46:51;;;;;;;17.60;10.75;;;;;;;;;;5139734;27;20248;-82
2022/10/17 05:49:19;;;;;;;17.55;11.30;;;;;;;;;;5154236;27;20231;-83
2022/10/17 05:51:46;;;;;;;18.90;11.13;;;;;;;;;;5154083;27;20222;-83
2022/10/17 05:54:13;;;;;;;19.83;10.90;;;;;;;;;;5154867;27;20239;-83
2022/10/17 05:56:40;;;;;;;14.40;10.55;;;;;;;;;;5155022;27;20193;-83
2022/10/17 05:59:07;;;;;;;17.23;10.65;;;;;;;;;;5155133;27;20227;-83
2022/10/17 06:01:35;;;;;;;15.00;10.80;;;;;;;;;;5154396;27;20734;-83
2022/10/17 06:04:03;;;;;;;16.53;10.80;;;;;;;;;;5154032;27;20228;-84
2022/10/17 06:06:30;;;;;;;19.03;9.90;;;;;;;;;;5153263;27;20378;-84
2022/10/17 06:08:58;;;;;;;14.18;8.80;;;;;;;;;;5152222;27;20255;-83
2022/10/17 06:11:25;;;;;;;14.63;8.60;;;;;;;;;;5153051;27;20647;-83
2022/10/17 06:13:52;;;;;;;10.97;8.07;;;;;;;;;;5152174;27;20228;-83
2022/10/17 06:16:20;;;;;;;13.80;7.60;;;;;;;;;;5153479;27;20196;-83
2022/10/17 06:18:47;;;;;;;12.70;7.97;;;;;;;;;;5153892;27;20797;-83
2022/10/17 06:21:16;;;;;;;13.20;8.10;;;;;;;;;;5154422;27;20224;-84
2022/10/17 06:23:43;;;;;;;12.00;6.87;;;;;;;;;;5154417;27;20751;-83
2022/10/17 06:26:11;;;;;;;11.50;6.97;;;;;;;;;;5154212;27;20298;-83
2022/10/17 06:28:38;;;;;;;10.40;6.25;;;;;;;;;;5154535;27;20311;-84
2022/10/17 06:31:06;;;;;;;13.47;6.80;;;;;;;;;;5154274;27;20690;-83
2022/10/17 06:33:33;;;;;;;10.70;7.00;;;;;;;;;;5154539;27;20192;-83
2022/10/17 06:36:00;;;;;;;10.60;7.20;;;;;;;;;;5153945;27;20283;-83
2022/10/17 06:38:29;;;;;;;12.47;6.53;;;;;;;;;;5154275;27;20264;-83
2022/10/17 06:41:03;;;;;;;11.07;6.47;;;;;;;;;;5153998;27;20287;-83
2022/10/17 06:43:30;;;;;;;10.07;6.57;;;;;;;;;;5153630;27;20196;-83
2022/10/17 06:45:58;;;;;;;14.83;7.27;;;;;;;;;;5153674;27;20228;-84
2022/10/17 06:48:25;;;;;;;13.65;6.90;;;;;;;;;;5154247;27;20257;-84
2022/10/17 06:50:52;;;;;;;11.60;6.10;;;;;;;;;;5153385;27;20727;-83
2022/10/17 06:53:20;;;;;;;12.97;6.10;;;;;;;;;;5153824;27;20192;-84
2022/10/17 06:55:54;;;;;;;10.00;6.05;;;;;;;;;;5135572;27;20619;-83
2022/10/17 06:58:21;;;;;;;11.27;6.40;;;;;;;;;;5153932;27;20243;-83
2022/10/17 07:00:48;;;;;;;9.65;5.93;;;;;;;;;;5154331;27;20200;-84
2022/10/17 07:03:15;;;;;;;10.30;5.53;;;;;;;;;;5153876;27;20219;-84
2022/10/17 07:05:43;;;;;;;10.33;6.17;;;;;;;;;;5153792;27;20220;-83
2022/10/17 07:08:10;;;;;;;11.45;6.35;;;;;;;;;;5152887;27;20307;-83
2022/10/17 07:10:37;;;;;;;10.68;5.72;;;;;;;;;;5153799;27;20667;-84
2022/10/17 07:13:06;;;;;;;9.68;6.30;;;;;;;;;;5153517;27;20671;-84
2022/10/17 07:15:33;;;;;;;14.52;6.45;;;;;;;;;;5153297;27;20219;-83
2022/10/17 07:18:00;;;;;;;10.67;6.50;;;;;;;;;;5153469;27;20283;-84
2022/10/17 07:20:27;;;;;;;10.55;5.93;;;;;;;;;;5153620;27;20235;-84
2022/10/17 07:22:54;;;;;;;10.63;6.83;;;;;;;;;;5170184;27;20275;-84
2022/10/17 07:25:21;;;;;;;11.50;5.25;;;;;;;;;;5153484;27;20671;-84
2022/10/17 07:27:49;;;;;;;8.20;5.07;;;;;;;;;;5153879;27;20259;-84
2022/10/17 07:30:18;;;;;;;10.25;5.43;;;;;;;;;;5153688;27;20208;-84
2022/10/17 07:32:45;;;;;;;9.90;5.40;;;;;;;;;;5153561;27;20223;-83
2022/10/17 07:35:13;;;;;;;12.23;5.32;;;;;;;;;;5153834;27;20228;-84
2022/10/17 07:37:40;;;;;;;10.10;5.10;;;;;;;;;;5153301;27;20235;-84
2022/10/17 07:40:08;;;;;;;8.63;4.93;;;;;;;;;;5153653;27;20660;-84
2022/10/17 07:42:37;;;;;;;7.50;4.57;;;;;;;;;;5153211;27;20269;-84
2022/10/17 07:45:05;;;;;;;8.30;4.78;;;;;;;;;;5153548;27;20292;-84
2022/10/17 07:47:34;;;;;;;6.47;4.60;;;;;;;;;;5153109;27;20308;-84
2022/10/17 07:50:01;;;;;;;8.68;4.95;;;;;;;;;;5152973;27;20718;-84
2022/10/17 07:52:29;;;;;;;6.10;4.90;;;;;;;;;;5153334;27;20638;-84
2022/10/17 07:54:56;;;;;;;9.82;5.05;;;;;;;;;;5153407;27;20232;-84
2022/10/17 07:57:23;;;;;;;8.73;4.93;;;;;;;;;;5153966;27;20279;-84
2022/10/17 07:59:51;;;;;;;7.85;4.90;;;;;;;;;;5153180;27;20220;-84
2022/10/17 08:02:21;;;;;;;7.55;4.80;;;;;;;;;;5152450;27;20235;-84
2022/10/17 08:04:50;;;;;;;9.27;4.95;;;;;;;;;;5157477;27;20196;-84
2022/10/17 08:07:18;;;;;;;9.63;4.40;;;;;;;;;;5157193;27;20311;-84
2022/10/17 08:09:45;;;;;;;6.72;3.95;;;;;;;;;;5156833;27;20220;-83
2022/10/17 08:12:13;;;;;;;6.45;3.80;;;;;;;;;;5157514;27;20283;-84
2022/10/17 08:14:40;;;;;;;6.95;4.15;;;;;;;;;;5156623;27;20192;-84
2022/10/17 08:17:07;;;;;;;8.68;4.03;;;;;;;;;;5156607;27;20663;-84
2022/10/17 08:19:35;;;;;;;10.93;4.05;;;;;;;;;;5162389;27;20225;-84
2022/10/17 08:22:03;;;;;;;5.10;3.25;;;;;;;;;;5160222;27;20232;-84
2022/10/17 08:24:31;;;;;;;4.28;3.35;;;;;;;;;;5156663;27;20292;-84
2022/10/17 08:26:59;;;;;;;8.93;3.00;;;;;;;;;;5156898;27;20268;-83
2022/10/17 08:29:26;;;;;;;5.40;2.60;;;;;;;;;;5157148;27;20216;-84
2022/10/17 08:31:54;;;;;;;5.40;2.47;;;;;;;;;;5136027;27;20201;-84
2022/10/17 08:34:21;;;;;;;8.40;2.95;;;;;;;;;;5136004;27;20228;-84
2022/10/17 08:36:48;;;;;;;6.38;2.85;;;;;;;;;;5149287;27;20278;-84
2022/10/17 08:39:17;;;;;;;5.80;2.90;;;;;;;;;;5156636;27;20223;-84
2022/10/17 08:41:48;;;;;;;5.43;2.20;;;;;;;;;;5156549;27;20315;-84
2022/10/17 08:44:22;;;;;;;6.72;2.83;;;;;;;;;;5156532;27;20279;-83
2022/10/17 08:46:52;;;;;;;5.35;2.60;;;;;;;;;;5156523;27;20247;-84
2022/10/17 08:49:21;;;;;;;4.32;2.30;;;;;;;;;;5156413;27;20200;-84
2022/10/17 08:51:50;;;;;;;6.78;3.00;;;;;;;;;;5162113;27;20273;-84
2022/10/17 08:54:21;;;;;;;7.28;2.97;;;;;;;;;;5155988;27;20239;-83
2022/10/17 08:56:50;;;;;;;4.63;2.83;;;;;;;;;;5156593;27;20280;-84
2022/10/17 08:59:21;;;;;;;7.05;2.85;;;;;;;;;;5155274;27;20755;-82
2022/10/17 09:01:50;;;;;;;5.55;3.20;;;;;;;;;;5156084;27;20698;-83
2022/10/17 09:04:35;;;;;;;5.97;3.30;;;;;;;;;;5156289;27;20242;-83
2022/10/17 09:07:06;;;;;;;8.25;3.55;;;;;;;;;;5155918;27;20269;-83
2022/10/17 09:09:37;;;;;;;7.15;3.25;;;;;;;;;;5155647;27;20251;-82
2022/10/17 09:12:11;;;;;;;6.90;3.60;;;;;;;;;;5156464;27;20212;-84
2022/10/17 09:14:57;;;;;;;5.20;3.00;;;;;;;;;;5155306;27;20195;-84
2022/10/17 09:17:31;;;;;;;7.18;3.40;;;;;;;;;;5155759;27;20228;-85
2022/10/17 09:20:00;;;;;;;9.75;3.35;;;;;;;;;;5156098;27;20618;-85
2022/10/17 09:22:30;;;;;;;10.13;3.65;;;;;;;;;;5155623;27;20672;-84
2022/10/17 09:25:02;;;;;;;10.20;3.47;;;;;;;;;;5155803;27;20683;-84
2022/10/17 09:27:34;;;;;;;14.55;3.88;;;;;;;;;;5151501;27;20219;-84
2022/10/17 09:30:14;;;;;;;9.07;3.95;;;;;;;;;;5155309;27;20243;-84
2022/10/17 09:32:42;;;;;;;12.57;3.95;;;;;;;;;;5154755;27;20267;-84
2022/10/17 09:35:12;;;;;;;7.20;3.00;;;;;;;;;;5155879;27;20284;-85
2022/10/17 09:37:40;;;;;;;8.25;3.35;;;;;;;;;;5155375;27;20679;-85
2022/10/17 09:40:13;;;;;;;9.70;3.58;;;;;;;;;;5155932;27;20245;-84
2022/10/17 09:42:41;;;;;;;6.75;2.92;;;;;;;;;;5154978;27;20701;-85
2022/10/17 09:45:18;;;;;;;5.78;3.13;;;;;;;;;;5155450;27;20626;-84
2022/10/17 09:47:48;;;;;;;5.85;2.78;;;;;;;;;;5154528;27;20633;-84
2022/10/17 09:50:17;;;;;;;6.80;3.10;;;;;;;;;;5155518;27;20283;-85
2022/10/17 09:52:47;;;;;;;6.40;3.05;;;;;;;;;;5155250;27;20235;-84
2022/10/17 09:55:19;;;;;;;6.07;2.97;;;;;;;;;;5155264;27;20208;-84
2022/10/17 09:57:54;;;;;;;7.70;3.22;;;;;;;;;;5154670;27;20239;-84
2022/10/17 10:00:23;;;;;;;5.72;3.25;;;;;;;;;;5168135;27;20219;-84
2022/10/17 10:02:50;;;;;;;9.38;3.15;;;;;;;;;;5156543;27;20271;-84
2022/10/17 10:05:18;;;;;;;6.75;3.10;;;;;;;;;;5154994;27;20686;-84
2022/10/17 10:07:49;;;;;;;6.07;2.50;;;;;;;;;;5154621;27;20560;-84
2022/10/17 10:10:27;;;;;;;8.38;3.17;;;;;;;;;;5154501;27;20915;-84
2022/10/17 10:13:05;;;;;;;7.53;3.33;;;;;;;;;;5154455;27;20671;-84
2022/10/17 10:15:37;;;;;;;6.70;2.80;;;;;;;;;;5155620;27;20638;-85
2022/10/17 10:18:24;;;;;;;7.22;3.30;;;;;;;;;;5154780;27;20265;-84
2022/10/17 10:21:03;;;;;;;6.82;3.22;;;;;;;;;;5154648;27;20224;-85
2022/10/17 10:23:30;;;;;;;6.68;2.67;;;;;;;;;;5154129;27;20232;-85
2022/10/17 10:25:59;;;;;;;8.20;2.80;;;;;;;;;;5154161;27;20663;-84
2022/10/17 10:28:27;;;;;;;4.47;2.40;;;;;;;;;;5153869;27;20303;-84
2022/10/17 10:30:56;;;;;;;4.82;2.42;;;;;;;;;;5154417;27;20231;-84
2022/10/17 10:33:24;;;;;;;6.60;2.40;;;;;;;;;;5154416;27;20219;-85
2022/10/17 10:35:56;;;;;;;5.53;2.40;;;;;;;;;;5154877;27;20271;-85
2022/10/17 10:38:23;;;;;;;4.63;2.40;;;;;;;;;;5153962;27;20224;-84
2022/10/17 10:40:51;;;;;;;6.82;2.85;;;;;;;;;;5154151;27;20234;-85
2022/10/17 10:43:26;;;;;;;6.15;2.25;;;;;;;;;;5161414;27;20223;-84
2022/10/17 10:45:53;;;;;;;4.72;2.28;;;;;;;;;;5171770;27;20256;-85
2022/10/17 10:48:22;;;;;;;4.13;2.20;;;;;;;;;;5153916;27;20307;-85
2022/10/17 10:50:50;;;;;;;6.63;2.20;;;;;;;;;;5154302;27;20287;-84
2022/10/17 10:53:26;;;;;;;5.65;2.38;;;;;;;;;;5154086;27;20239;-84
2022/10/17 10:55:55;;;;;;;3.60;2.00;;;;;;;;;;5153332;27;20315;-85
2022/10/17 10:58:33;;;;;;;7.38;2.47;;;;;;;;;;5153604;27;20629;-85
2022/10/17 11:01:03;;;;;;;8.57;2.40;;;;;;;;;;5154219;27;20275;-85
2022/10/17 11:03:32;;;;;;;4.55;2.13;;;;;;;;;;5153809;27;20227;-85
2022/10/17 11:06:01;;;;;;;4.22;1.80;;;;;;;;;;5153931;27;20558;-85
2022/10/17 11:08:30;;;;;;;3.00;1.77;;;;;;;;;;5166580;27;20232;-85
2022/10/17 11:11:06;;;;;;;6.57;1.85;;;;;;;;;;5168159;27;20287;-85
2022/10/17 11:13:37;;;;;;;5.10;1.80;;;;;;;;;;5172491;27;20235;-85
2022/10/17 11:16:13;;;;;;;4.15;1.77;;;;;;;;;;5170169;27;20228;-85
2022/10/17 11:18:42;;;;;;;2.67;1.35;;;;;;;;;;5153776;27;20245;-85
2022/10/17 11:21:13;;;;;;;4.47;1.50;;;;;;;;;;5153675;27;20232;-85
2022/10/17 11:23:43;;;;;;;3.05;1.27;;;;;;;;;;5152532;27;20192;-85
2022/10/17 11:26:14;;;;;;;5.10;1.25;;;;;;;;;;5133496;28;20232;-85
2022/10/17 11:28:43;;;;;;;3.20;1.40;;;;;;;;;;5152106;27;20296;-83
2022/10/17 11:31:12;;;;;;;4.43;1.40;;;;;;;;;;5160241;27;20223;-84
2022/10/17 11:33:44;;;;;;;2.22;1.00;;;;;;;;;;5174226;27;20247;-85
2022/10/17 11:36:13;;;;;;;3.10;1.10;;;;;;;;;;5163908;27;20224;-85
2022/10/17 11:38:43;;;;;;;4.53;1.15;;;;;;;;;;5162018;27;20629;-84
2022/10/17 11:41:12;;;;;;;2.42;1.00;;;;;;;;;;5157660;27;20283;-85
2022/10/17 11:43:41;;;;;;;3.92;1.00;;;;;;;;;;5157935;27;20226;-85
2022/10/17 11:46:14;;;;;;;2.75;1.00;;;;;;;;;;5157182;27;20192;-85
2022/10/17 11:48:43;;;;;;;4.57;1.15;;;;;;;;;;5157567;27;20255;-85
2022/10/17 11:51:11;;;;;;;2.67;0.95;;;;;;;;;;5157990;27;20656;-85
2022/10/17 11:53:46;;;;;;;2.50;1.08;;;;;;;;;;5157938;27;20264;-85
2022/10/17 11:56:15;;;;;;;3.03;1.00;;;;;;;;;;5156972;27;20283;-85
2022/10/17 11:58:47;;;;;;;4.80;1.05;;;;;;;;;;5157692;27;20196;-85
2022/10/17 12:01:19;;;;;;;4.20;0.90;;;;;;;;;;5162683;27;20623;-85
2022/10/17 12:03:53;;;;;;;5.32;1.08;;;;;;;;;;5157198;27;20642;-84
2022/10/17 12:06:28;;;;;;;3.00;0.90;;;;;;;;;;5157447;27;20196;-85
2022/10/17 12:08:59;;;;;;;2.40;1.00;;;;;;;;;;5138591;27;20386;-85
2022/10/17 12:11:33;;;;;;;2.22;0.82;;;;;;;;;;5156955;27;20570;-85
2022/10/17 12:14:00;;;;;;;3.83;1.00;;;;;;;;;;5156532;27;20199;-84
2022/10/17 12:16:39;;;;;;;2.70;1.02;;;;;;;;;;5157040;27;20295;-85
2022/10/17 12:19:21;;;;;;;2.58;0.82;;;;;;;;;;5157425;27;20287;-85
2022/10/17 12:21:55;;;;;;;2.90;1.00;;;;;;;;;;5157498;27;20294;-85
2022/10/17 12:24:28;;;;;;;2.90;1.10;;;;;;;;;;5156354;27;20279;-85
2022/10/17 12:26:55;;;;;;;2.35;0.90;;;;;;;;;;5121536;27;20196;-85
2022/10/17 12:29:27;;;;;;;2.97;0.95;;;;;;;;;;5156922;27;20251;-85
2022/10/17 12:31:55;;;;;;;2.72;0.88;;;;;;;;;;5157245;27;20192;-85
2022/10/17 12:34:24;;;;;;;3.35;1.20;;;;;;;;;;5156297;27;20188;-84
2022/10/17 12:36:51;;;;;;;2.03;0.90;;;;;;;;;;5156981;27;20201;-85
2022/10/17 12:39:49;;;;;;;2.95;0.80;;;;;;;;;;5156200;27;20674;-85
2022/10/17 12:42:29;;;;;;;3.28;0.98;;;;;;;;;;5156284;27;20216;-85
2022/10/17 12:44:57;;;;;;;3.00;0.90;;;;;;;;;;5156934;27;20228;-85
2022/10/17 12:47:39;;;;;;;1.75;0.73;;;;;;;;;;5155813;27;20281;-84
2022/10/17 12:50:21;;;;;;;2.25;1.02;;;;;;;;;;5152987;27;20212;-85
2022/10/17 12:53:02;;;;;;;2.30;0.82;;;;;;;;;;5154811;27;20280;-85
2022/10/17 12:55:30;;;;;;;3.83;1.00;;;;;;;;;;5148179;27;20782;-84
2022/10/17 12:58:00;;;;;;;3.63;1.15;;;;;;;;;;5156133;27;20228;-85
2022/10/17 13:00:34;;;;;;;2.15;0.88;;;;;;;;;;5155576;27;20720;-85
2022/10/17 13:03:04;;;;;;;2.40;0.88;;;;;;;;;;5135742;27;20279;-85
2022/10/17 13:05:33;;;;;;;2.22;0.93;;;;;;;;;;5135130;27;20193;-85
2022/10/17 13:08:04;;;;;;;2.15;0.85;;;;;;;;;;5135155;27;20236;-85
2022/10/17 13:10:32;;;;;;;1.65;1.02;;;;;;;;;;5094749;28;20272;-84
2022/10/17 13:13:05;;;;;;;2.65;1.00;;;;;;;;;;5094930;28;20230;-85
2022/10/17 13:15:32;;;;;;;3.13;1.05;;;;;;;;;;5094210;28;20226;-85
2022/10/17 13:18:00;;;;;;;2.05;0.88;;;;;;;;;;5094452;28;20216;-85
2022/10/17 13:20:29;;;;;;;3.67;0.90;;;;;;;;;;5094314;28;20214;-85
2022/10/17 13:22:57;;;;;;;2.47;1.00;;;;;;;;;;5103578;27;20225;-85
2022/10/17 13:25:26;;;;;;;2.28;0.88;;;;;;;;;;5114146;28;20193;-85
2022/10/17 13:28:04;;;;;;;1.67;0.80;;;;;;;;;;5114517;27;20276;-84
2022/10/17 13:30:32;;;;;;;2.92;0.98;;;;;;;;;;5113569;28;20282;-84
2022/10/17 13:32:59;;;;;;;2.45;0.70;;;;;;;;;;5114660;28;20271;-85
2022/10/17 13:35:28;;;;;;;2.42;0.90;;;;;;;;;;5114629;28;20280;-85
2022/10/17 13:37:56;;;;;;;1.65;0.75;;;;;;;;;;5119245;27;20692;-85
2022/10/17 13:40:24;;;;;;;1.40;0.70;;;;;;;;;;5114253;28;20240;-84
2022/10/17 13:42:53;;;;;;;3.83;0.90;;;;;;;;;;5114217;28;20198;-85
2022/10/17 13:45:29;;;;;;;2.55;0.93;;;;;;;;;;5114194;28;20297;-85
2022/10/17 13:47:57;;;;;;;2.42;0.90;;;;;;;;;;5113730;28;20681;-84
2022/10/17 13:50:26;;;;;;;2.53;1.00;;;;;;;;;;5114018;28;20225;-85
2022/10/17 13:53:07;;;;;;;4.70;1.02;;;;;;;;;;5113062;28;20272;-85
2022/10/17 13:55:34;;;;;;;2.15;0.93;;;;;;;;;;5114144;28;20301;-84
2022/10/17 13:58:15;;;;;;;1.42;0.70;;;;;;;;;;5113958;27;20245;-85
2022/10/17 14:00:42;;;;;;;4.38;1.00;;;;;;;;;;5112723;28;20198;-84
2022/10/17 14:03:10;;;;;;;3.42;0.95;;;;;;;;;;5113956;28;20285;-85
2022/10/17 14:05:57;;;;;;;3.22;0.88;;;;;;;;;;5113820;28;20233;-85
2022/10/17 14:08:24;;;;;;;2.67;0.90;;;;;;;;;;5119563;27;20311;-85
2022/10/17 14:10:51;;;;;;;2.42;1.00;;;;;;;;;;5154682;27;20299;-84
2022/10/17 14:13:22;;;;;;;3.67;1.20;;;;;;;;;;5154423;27;20732;-84
2022/10/17 14:15:50;;;;;;;2.95;1.00;;;;;;;;;;5155151;27;20291;-85
2022/10/17 14:18:19;;;;;;;2.50;1.05;;;;;;;;;;5154644;27;20228;-84
2022/10/17 14:20:47;;;;;;;4.05;1.58;;;;;;;;;;5154705;27;20715;-84
2022/10/17 14:23:35;;;;;;;3.40;1.60;;;;;;;;;;5154782;27;20227;-85
2022/10/17 14:26:06;;;;;;;4.57;1.45;;;;;;;;;;5147809;27;20675;-84
2022/10/17 14:28:35;;;;;;;5.18;1.65;;;;;;;;;;5154552;27;20216;-85
2022/10/17 14:31:13;;;;;;;3.78;1.77;;;;;;;;;;5154266;27;20623;-84
2022/10/17 14:33:44;;;;;;;4.82;2.30;;;;;;;;;;5154142;27;20200;-85
2022/10/17 14:36:11;;;;;;;4.97;2.65;;;;;;;;;;5154540;27;20189;-85
2022/10/17 14:38:39;;;;;;;4.70;3.05;;;;;;;;;;5154654;27;20224;-85
2022/10/17 14:41:10;;;;;;;7.43;4.45;;;;;;;;;;5154254;27;20283;-85
2022/10/17 14:43:38;;;;;;;7.60;4.35;;;;;;;;;;5136218;27;20200;-84
2022/10/17 14:46:06;;;;;;;7.55;4.50;;;;;;;;;;5154560;27;20196;-84
2022/10/17 14:48:34;;;;;;;6.75;3.75;;;;;;;;;;5153483;27;20735;-84